Time;durP1;ratioP1;P1;durP2;ratioP2;P2;SDS_P1;SDS_P2;PMS_P1;PMS_P2;Temp;Humidity;BMP_temperature;BMP_pressure;BME280_temperature;BME280_humidity;BME280_pressure;Samples;Min_cycle;Max_cycle;Signal;HPM_P1;HPM_P2
2023/10/01 00:01:32;;;;;;;8.38;3.60;;;;;;;;;;5035896;28;20021;-69
2023/10/01 00:03:57;;;;;;;6.93;2.97;;;;;;;;;;5053092;28;20490;-68
2023/10/01 00:06:24;;;;;;;10.65;2.40;;;;;;;;;;5040017;28;20056;-69
2023/10/01 00:08:49;;;;;;;8.32;2.83;;;;;;;;;;5015264;28;20025;-69
2023/10/01 00:11:15;;;;;;;8.35;2.30;;;;;;;;;;5038997;28;20375;-69
2023/10/01 00:13:40;;;;;;;5.28;2.53;;;;;;;;;;5053029;28;20025;-69
2023/10/01 00:16:06;;;;;;;4.80;2.53;;;;;;;;;;5052121;28;20049;-69
2023/10/01 00:18:31;;;;;;;8.55;2.30;;;;;;;;;;5036666;28;20026;-69
2023/10/01 00:20:57;;;;;;;6.25;2.50;;;;;;;;;;5043415;28;20467;-69
2023/10/01 00:23:22;;;;;;;5.70;2.35;;;;;;;;;;5038881;28;20031;-69
2023/10/01 00:25:47;;;;;;;6.95;2.33;;;;;;;;;;5056849;28;20163;-69
2023/10/01 00:28:14;;;;;;;6.20;2.28;;;;;;;;;;5057214;28;20024;-69
2023/10/01 00:30:39;;;;;;;8.38;3.05;;;;;;;;;;5057896;28;20024;-68
2023/10/01 00:33:06;;;;;;;6.43;2.53;;;;;;;;;;5060785;28;20028;-69
2023/10/01 00:35:31;;;;;;;6.43;2.55;;;;;;;;;;5058658;28;20028;-69
2023/10/01 00:37:56;;;;;;;5.55;2.00;;;;;;;;;;5041952;28;20545;-69
2023/10/01 00:40:22;;;;;;;7.68;2.75;;;;;;;;;;5056687;28;20472;-69
2023/10/01 00:42:47;;;;;;;6.60;2.17;;;;;;;;;;5061990;28;20037;-69
2023/10/01 00:45:14;;;;;;;5.30;2.40;;;;;;;;;;5055785;28;20079;-69
2023/10/01 00:47:41;;;;;;;7.85;2.92;;;;;;;;;;5056344;28;20036;-69
2023/10/01 00:50:11;;;;;;;5.65;2.25;;;;;;;;;;5039072;28;20021;-69
2023/10/01 00:52:37;;;;;;;3.83;2.20;;;;;;;;;;5056661;28;20487;-69
2023/10/01 00:55:05;;;;;;;5.70;2.63;;;;;;;;;;5056625;28;20100;-69
2023/10/01 00:57:30;;;;;;;4.72;2.00;;;;;;;;;;5036085;28;20025;-69
2023/10/01 00:59:55;;;;;;;5.85;2.65;;;;;;;;;;5056295;28;20032;-69
2023/10/01 01:02:30;;;;;;;11.68;2.58;;;;;;;;;;5057875;28;20529;-69
2023/10/01 01:07:40;;;;;;;5.88;2.42;;;;;;;;;;5056611;28;20039;-69
2023/10/01 01:10:06;;;;;;;3.75;2.40;;;;;;;;;;5055961;28;20025;-69
2023/10/01 01:12:32;;;;;;;6.85;2.45;;;;;;;;;;5038529;28;20044;-69
2023/10/01 01:14:58;;;;;;;6.45;3.05;;;;;;;;;;5038533;28;20112;-69
2023/10/01 01:17:24;;;;;;;6.65;2.45;;;;;;;;;;5038744;28;20087;-69
2023/10/01 01:19:53;;;;;;;10.70;3.13;;;;;;;;;;5037931;28;20028;-69
2023/10/01 01:22:30;;;;;;;5.80;1.73;;;;;;;;;;5038847;28;20364;-69
2023/10/01 01:24:57;;;;;;;;;;;;;;;;;;5056648;28;20040;-69
2023/10/01 01:27:23;;;;;;;10.32;3.05;;;;;;;;;;5056046;28;19916;-69
2023/10/01 01:29:50;;;;;;;7.43;3.10;;;;;;;;;;5055763;28;20032;-69
2023/10/01 01:32:16;;;;;;;6.00;2.40;;;;;;;;;;5055829;28;20029;-69
2023/10/01 01:34:45;;;;;;;6.95;3.33;;;;;;;;;;5037699;28;20032;-69
2023/10/01 01:37:30;;;;;;;5.53;2.70;;;;;;;;;;5055782;28;20021;-69
2023/10/01 01:39:57;;;;;;;11.13;3.03;;;;;;;;;;5056085;28;20032;-69
2023/10/01 01:42:23;;;;;;;9.02;3.35;;;;;;;;;;5037541;28;20025;-69
2023/10/01 01:44:48;;;;;;;13.25;2.83;;;;;;;;;;5038129;28;20025;-69
2023/10/01 01:47:16;;;;;;;11.68;2.83;;;;;;;;;;5056214;28;20064;-69
2023/10/01 01:49:43;;;;;;;5.80;3.33;;;;;;;;;;5055264;28;20029;-69
2023/10/01 01:52:10;;;;;;;7.18;2.10;;;;;;;;;;5037985;28;20431;-69
2023/10/01 01:54:39;;;;;;;7.53;2.75;;;;;;;;;;5037713;28;20483;-69
2023/10/01 01:57:13;;;;;;;8.70;3.00;;;;;;;;;;5037849;28;20040;-69
2023/10/01 01:59:39;;;;;;;14.43;3.20;;;;;;;;;;5056009;28;20021;-69
2023/10/01 02:02:07;;;;;;;6.13;2.95;;;;;;;;;;5038446;28;20045;-68
2023/10/01 02:04:32;;;;;;;12.27;3.25;;;;;;;;;;5069315;23;20053;-67
2023/10/01 02:06:59;;;;;;;10.70;2.72;;;;;;;;;;5054391;28;20397;-67
2023/10/01 02:09:24;;;;;;;8.30;3.00;;;;;;;;;;5055376;28;20047;-67
2023/10/01 02:11:50;;;;;;;6.53;3.55;;;;;;;;;;5055076;28;20104;-67
2023/10/01 02:14:31;;;;;;;9.77;3.53;;;;;;;;;;5054921;28;20467;-67
2023/10/01 02:17:13;;;;;;;9.55;3.03;;;;;;;;;;5054718;28;20021;-67
2023/10/01 02:19:39;;;;;;;8.82;3.22;;;;;;;;;;5054614;28;20082;-67
2023/10/01 02:22:05;;;;;;;10.93;3.35;;;;;;;;;;5054066;28;20510;-67
2023/10/01 02:24:44;;;;;;;10.50;3.38;;;;;;;;;;5054852;28;20480;-67
2023/10/01 02:27:11;;;;;;;8.10;2.90;;;;;;;;;;5054791;28;20028;-67
2023/10/01 02:29:45;;;;;;;10.25;3.00;;;;;;;;;;5054707;28;20505;-67
2023/10/01 02:32:14;;;;;;;8.82;2.92;;;;;;;;;;5049502;28;20029;-67
2023/10/01 02:34:40;;;;;;;7.10;3.30;;;;;;;;;;5049749;28;20024;-67
2023/10/01 02:37:06;;;;;;;9.63;3.65;;;;;;;;;;5053882;28;20564;-67
2023/10/01 02:39:32;;;;;;;9.32;4.03;;;;;;;;;;5052619;28;20033;-67
2023/10/01 02:44:38;;;;;;;7.57;2.78;;;;;;;;;;5054385;28;20029;-67
2023/10/01 02:47:09;;;;;;;5.63;2.88;;;;;;;;;;5034543;28;20107;-67
2023/10/01 02:49:47;;;;;;;9.73;2.63;;;;;;;;;;5034117;28;20041;-67
2023/10/01 02:52:12;;;;;;;8.48;3.35;;;;;;;;;;5036910;28;20037;-67
2023/10/01 02:54:38;;;;;;;9.00;3.92;;;;;;;;;;5033761;28;20030;-67
2023/10/01 02:57:12;;;;;;;11.68;3.20;;;;;;;;;;5033790;28;20383;-67
2023/10/01 03:00:09;;;;;;;11.55;3.13;;;;;;;;;;5034679;28;20030;-67
2023/10/01 03:02:25;;;;;;;12.32;3.22;;;;;;;;;;5053008;28;20103;-67
2023/10/01 03:04:50;;;;;;;9.13;3.80;;;;;;;;;;5053448;28;20478;-67
2023/10/01 03:07:17;;;;;;;10.15;3.25;;;;;;;;;;5053605;28;20055;-67
2023/10/01 03:09:42;;;;;;;11.68;3.90;;;;;;;;;;5053024;28;20039;-67
2023/10/01 03:12:35;;;;;;;11.05;4.25;;;;;;;;;;5053544;28;20471;-67
2023/10/01 03:15:00;;;;;;;8.63;4.07;;;;;;;;;;5053641;28;20124;-67
2023/10/01 03:17:38;;;;;;;11.07;4.35;;;;;;;;;;5053595;28;20056;-67
2023/10/01 03:22:53;;;;;;;11.00;3.55;;;;;;;;;;5053349;28;20035;-67
2023/10/01 03:25:19;;;;;;;12.13;3.95;;;;;;;;;;5052886;28;20445;-67
2023/10/01 03:27:45;;;;;;;6.38;3.72;;;;;;;;;;5053422;28;20051;-67
2023/10/01 03:30:22;;;;;;;13.65;4.40;;;;;;;;;;5053914;28;20439;-67
2023/10/01 03:32:47;;;;;;;17.05;4.22;;;;;;;;;;5051831;28;20502;-67
2023/10/01 03:35:13;;;;;;;14.57;5.65;;;;;;;;;;5050207;28;20041;-67
2023/10/01 03:37:38;;;;;;;8.77;4.05;;;;;;;;;;5044385;28;20024;-67
2023/10/01 03:40:18;;;;;;;14.02;5.38;;;;;;;;;;5032982;28;20522;-67
2023/10/01 03:42:50;;;;;;;12.82;5.32;;;;;;;;;;5032599;28;20495;-67
2023/10/01 03:47:59;;;;;;;14.73;4.82;;;;;;;;;;5045286;28;20329;-67
2023/10/01 03:50:25;;;;;;;16.92;4.97;;;;;;;;;;5051703;28;20070;-67
2023/10/01 03:52:54;;;;;;;13.90;4.80;;;;;;;;;;5052426;28;20059;-67
2023/10/01 03:55:27;;;;;;;17.08;5.35;;;;;;;;;;5053309;28;20391;-67
2023/10/01 03:58:18;;;;;;;16.30;5.90;;;;;;;;;;5053328;28;20429;-67
2023/10/01 04:00:41;;;;;;;16.95;5.78;;;;;;;;;;5052760;28;20147;-67
2023/10/01 04:03:07;;;;;;;17.80;6.13;;;;;;;;;;5051096;28;20021;-67
2023/10/01 04:05:34;;;;;;;16.23;4.85;;;;;;;;;;5052582;28;20067;-67
2023/10/01 04:08:11;;;;;;;11.60;4.93;;;;;;;;;;5052846;28;20025;-67
2023/10/01 04:10:38;;;;;;;14.70;5.00;;;;;;;;;;5053482;28;20021;-67
2023/10/01 04:13:15;;;;;;;12.40;4.68;;;;;;;;;;5051568;28;20108;-67
2023/10/01 04:15:41;;;;;;;10.32;4.88;;;;;;;;;;5053168;28;20078;-67
2023/10/01 04:20:47;;;;;;;12.80;4.93;;;;;;;;;;5052369;28;20025;-67
2023/10/01 04:23:20;;;;;;;17.42;5.93;;;;;;;;;;5052580;28;20561;-67
2023/10/01 04:25:46;;;;;;;16.20;5.20;;;;;;;;;;5052324;28;20059;-67
2023/10/01 04:28:12;;;;;;;16.05;6.10;;;;;;;;;;5052145;28;20112;-67
2023/10/01 04:30:41;;;;;;;16.08;5.72;;;;;;;;;;5053226;28;20021;-67
2023/10/01 04:33:20;;;;;;;12.95;5.30;;;;;;;;;;5052551;28;20037;-67
2023/10/01 04:35:55;;;;;;;10.23;5.35;;;;;;;;;;5052659;28;20031;-67
2023/10/01 04:38:28;;;;;;;13.68;5.15;;;;;;;;;;5052250;28;20040;-67
2023/10/01 04:40:57;;;;;;;17.27;4.72;;;;;;;;;;5052397;28;20537;-67
2023/10/01 04:43:26;;;;;;;12.00;5.45;;;;;;;;;;5052023;28;20025;-67
2023/10/01 04:45:52;;;;;;;13.65;4.70;;;;;;;;;;5052419;28;20055;-67
2023/10/01 04:48:25;;;;;;;15.80;4.75;;;;;;;;;;5051892;28;20604;-67
2023/10/01 04:50:55;;;;;;;16.48;5.15;;;;;;;;;;5052118;28;20017;-67
2023/10/01 04:53:22;;;;;;;11.68;5.10;;;;;;;;;;5052086;28;20025;-67
2023/10/01 04:56:06;;;;;;;13.50;4.95;;;;;;;;;;5051989;28;20397;-67
2023/10/01 04:58:38;;;;;;;17.02;4.57;;;;;;;;;;5052215;28;20032;-67
2023/10/01 05:01:12;;;;;;;16.25;6.38;;;;;;;;;;5050951;28;20031;-67
2023/10/01 05:03:38;;;;;;;16.13;5.28;;;;;;;;;;5046698;28;20076;-67
2023/10/01 05:06:15;;;;;;;15.18;5.88;;;;;;;;;;5036425;28;20044;-67
2023/10/01 05:08:41;;;;;;;14.88;6.43;;;;;;;;;;5049904;28;20029;-67
2023/10/01 05:11:11;;;;;;;14.10;4.80;;;;;;;;;;5055559;28;20032;-67
2023/10/01 05:13:40;;;;;;;24.08;6.72;;;;;;;;;;5050626;28;20017;-67
2023/10/01 05:16:13;;;;;;;13.80;5.55;;;;;;;;;;5035839;28;20029;-67
2023/10/01 05:18:39;;;;;;;16.23;5.28;;;;;;;;;;5038595;28;20029;-67
2023/10/01 05:21:11;;;;;;;14.82;5.53;;;;;;;;;;5055100;28;20517;-67
2023/10/01 05:23:39;;;;;;;20.73;6.40;;;;;;;;;;5055549;28;20033;-67
2023/10/01 05:26:06;;;;;;;16.58;5.30;;;;;;;;;;5054638;28;20100;-67
2023/10/01 05:28:31;;;;;;;14.88;6.15;;;;;;;;;;5055230;28;20401;-67
2023/10/01 05:31:12;;;;;;;15.00;5.53;;;;;;;;;;5054929;28;20112;-67
2023/10/01 05:33:38;;;;;;;14.20;5.85;;;;;;;;;;5054714;28;20033;-67
2023/10/01 05:36:05;;;;;;;16.60;6.07;;;;;;;;;;5054369;28;20032;-67
2023/10/01 05:38:34;;;;;;;14.88;5.18;;;;;;;;;;5053655;28;20482;-67
2023/10/01 05:41:03;;;;;;;12.45;5.07;;;;;;;;;;5054135;28;20036;-67
2023/10/01 05:43:35;;;;;;;18.60;5.93;;;;;;;;;;5054313;28;20112;-67
2023/10/01 05:46:01;;;;;;;16.73;5.85;;;;;;;;;;5054681;28;20048;-67
2023/10/01 05:48:26;;;;;;;13.68;5.88;;;;;;;;;;5054181;28;20021;-67
2023/10/01 05:50:53;;;;;;;14.45;6.05;;;;;;;;;;5054429;28;20039;-67
2023/10/01 05:53:18;;;;;;;15.82;5.85;;;;;;;;;;5053620;28;20025;-67
2023/10/01 05:55:45;;;;;;;14.70;5.25;;;;;;;;;;5054149;28;20079;-67
2023/10/01 05:58:13;;;;;;;14.98;5.07;;;;;;;;;;5053980;28;20025;-67
2023/10/01 06:00:44;;;;;;;17.70;6.10;;;;;;;;;;5054044;28;20542;-67
2023/10/01 06:03:11;;;;;;;14.73;5.13;;;;;;;;;;5053599;28;20104;-67
2023/10/01 06:05:43;;;;;;;13.30;5.40;;;;;;;;;;5054112;28;20039;-67
2023/10/01 06:08:17;;;;;;;17.63;5.68;;;;;;;;;;5054351;28;20104;-67
2023/10/01 06:11:04;;;;;;;15.65;5.97;;;;;;;;;;5054194;28;20099;-67
2023/10/01 06:13:31;;;;;;;11.90;5.35;;;;;;;;;;5052971;28;20033;-67
2023/10/01 06:15:57;;;;;;;17.25;6.15;;;;;;;;;;5052399;28;20040;-67
2023/10/01 06:18:23;;;;;;;17.73;5.25;;;;;;;;;;5054235;28;20025;-67
2023/10/01 06:20:50;;;;;;;15.55;5.60;;;;;;;;;;5053730;28;20033;-67
2023/10/01 06:23:20;;;;;;;13.02;5.15;;;;;;;;;;5054185;28;20071;-67
2023/10/01 06:25:51;;;;;;;14.38;5.45;;;;;;;;;;5053896;28;20031;-67
2023/10/01 06:28:20;;;;;;;14.93;5.05;;;;;;;;;;5053860;28;20028;-67
2023/10/01 06:30:45;;;;;;;10.18;4.72;;;;;;;;;;5046588;28;20048;-67
2023/10/01 06:33:53;;;;;;;13.18;4.65;;;;;;;;;;5043906;28;20436;-67
2023/10/01 06:38:47;;;;;;;12.18;5.25;;;;;;;;;;5053441;28;20128;-67
2023/10/01 06:41:16;;;;;;;13.02;5.40;;;;;;;;;;5052480;28;20021;-67
2023/10/01 06:43:48;;;;;;;21.48;6.30;;;;;;;;;;5042277;28;20060;-67
2023/10/01 06:46:19;;;;;;;11.57;4.50;;;;;;;;;;5047531;28;20040;-67
2023/10/01 06:48:47;;;;;;;13.60;5.03;;;;;;;;;;5053441;28;20021;-67
2023/10/01 06:51:13;;;;;;;11.52;5.20;;;;;;;;;;5052892;28;20108;-67
2023/10/01 06:53:45;;;;;;;17.13;5.93;;;;;;;;;;5051915;28;20104;-67
2023/10/01 06:56:14;;;;;;;13.98;5.45;;;;;;;;;;5053602;28;20039;-67
2023/10/01 06:58:40;;;;;;;14.88;5.10;;;;;;;;;;5053429;28;20390;-67
2023/10/01 07:01:33;;;;;;;11.75;4.93;;;;;;;;;;5053067;28;20532;-67
2023/10/01 07:03:51;;;;;;;17.75;5.32;;;;;;;;;;5052442;28;20040;-67
2023/10/01 07:06:16;;;;;;;15.63;5.95;;;;;;;;;;5053011;28;20032;-67
2023/10/01 07:08:43;;;;;;;12.88;4.65;;;;;;;;;;5052633;28;20017;-67
2023/10/01 07:11:11;;;;;;;10.70;4.28;;;;;;;;;;5053278;28;20048;-67
2023/10/01 07:13:38;;;;;;;15.48;5.20;;;;;;;;;;5052354;28;20483;-67
2023/10/01 07:16:03;;;;;;;11.77;5.57;;;;;;;;;;5052768;28;20465;-67
2023/10/01 07:18:30;;;;;;;8.93;4.72;;;;;;;;;;5053040;28;20112;-67
2023/10/01 07:21:00;;;;;;;12.85;4.85;;;;;;;;;;5052698;28;20036;-67
2023/10/01 07:23:26;;;;;;;10.80;4.70;;;;;;;;;;5053171;28;20028;-67
2023/10/01 07:26:00;;;;;;;14.57;4.82;;;;;;;;;;5052061;28;20467;-67
2023/10/01 07:28:25;;;;;;;11.52;5.03;;;;;;;;;;5034360;28;20032;-67
2023/10/01 07:30:56;;;;;;;17.58;6.25;;;;;;;;;;5052479;28;20021;-67
2023/10/01 07:33:22;;;;;;;14.52;4.65;;;;;;;;;;5052788;28;20056;-67
2023/10/01 07:35:58;;;;;;;9.82;5.03;;;;;;;;;;5052464;28;20056;-67
2023/10/01 07:38:25;;;;;;;7.15;4.47;;;;;;;;;;5052054;28;20077;-67
2023/10/01 07:40:57;;;;;;;14.45;4.78;;;;;;;;;;5052496;28;20017;-67
2023/10/01 07:43:26;;;;;;;11.65;5.05;;;;;;;;;;5052168;28;20533;-67
2023/10/01 07:45:55;;;;;;;9.50;4.82;;;;;;;;;;5052281;28;20107;-67
2023/10/01 07:48:27;;;;;;;15.10;4.95;;;;;;;;;;5052100;28;20032;-67
2023/10/01 07:50:53;;;;;;;10.48;4.63;;;;;;;;;;5052327;28;20474;-67
2023/10/01 07:53:19;;;;;;;11.25;4.45;;;;;;;;;;5051120;28;20033;-67
2023/10/01 07:55:47;;;;;;;9.40;3.83;;;;;;;;;;5047208;28;20398;-67
2023/10/01 08:01:32;;;;;;;11.48;4.65;;;;;;;;;;5050928;28;20089;-67
2023/10/01 08:03:55;;;;;;;12.90;4.18;;;;;;;;;;5041425;28;20155;-67
2023/10/01 08:06:29;;;;;;;13.30;5.68;;;;;;;;;;5073957;22;20041;-68
2023/10/01 08:08:57;;;;;;;10.55;4.82;;;;;;;;;;5049187;28;20028;-70
2023/10/01 08:14:07;;;;;;;12.63;3.97;;;;;;;;;;5051628;28;20063;-69
2023/10/01 08:16:47;;;;;;;15.55;5.13;;;;;;;;;;5040885;28;20496;-70
2023/10/01 08:19:13;;;;;;;12.40;4.32;;;;;;;;;;5031075;28;20189;-68
2023/10/01 08:21:48;;;;;;;19.02;5.10;;;;;;;;;;5047971;28;20491;-69
2023/10/01 08:24:18;;;;;;;15.05;4.50;;;;;;;;;;5032255;28;20030;-69
2023/10/01 08:26:44;;;;;;;10.35;4.80;;;;;;;;;;5011285;28;20100;-69
2023/10/01 08:29:14;;;;;;;14.40;5.15;;;;;;;;;;5011856;28;20472;-69
2023/10/01 08:34:23;;;;;;;12.38;5.10;;;;;;;;;;5032922;28;20037;-69
2023/10/01 08:36:56;;;;;;;17.35;5.30;;;;;;;;;;5030226;28;20028;-69
2023/10/01 08:42:19;;;;;;;9.45;4.25;;;;;;;;;;5018323;28;20053;-71
2023/10/01 08:44:49;;;;;;;18.55;5.22;;;;;;;;;;5035347;28;20172;-69
2023/10/01 08:47:34;;;;;;;9.77;5.10;;;;;;;;;;5036326;28;20049;-69
2023/10/01 08:52:55;;;;;;;15.45;4.80;;;;;;;;;;5030291;28;20033;-69
2023/10/01 08:56:04;;;;;;;12.88;5.13;;;;;;;;;;5016096;28;20022;-70
2023/10/01 08:58:27;;;;;;;9.63;4.53;;;;;;;;;;5021918;28;20545;-69
2023/10/01 09:01:12;;;;;;;14.80;5.50;;;;;;;;;;5030207;28;20439;-69
2023/10/01 09:03:38;;;;;;;14.77;5.40;;;;;;;;;;5018004;28;20475;-69
2023/10/01 09:06:04;;;;;;;11.02;4.88;;;;;;;;;;5034451;28;20120;-69
2023/10/01 09:08:42;;;;;;;12.00;4.68;;;;;;;;;;5035302;28;20052;-69
2023/10/01 09:11:12;;;;;;;15.60;4.45;;;;;;;;;;5029419;28;20392;-69
2023/10/01 09:13:58;;;;;;;10.93;4.40;;;;;;;;;;5014040;28;20022;-69
2023/10/01 09:16:31;;;;;;;9.18;5.20;;;;;;;;;;5021861;28;20029;-68
2023/10/01 09:19:03;;;;;;;13.63;5.18;;;;;;;;;;5034282;28;20029;-69
2023/10/01 09:21:31;;;;;;;9.80;5.88;;;;;;;;;;5032895;28;20061;-68
2023/10/01 09:23:58;;;;;;;12.48;6.40;;;;;;;;;;5034417;28;20029;-68
2023/10/01 09:26:42;;;;;;;18.92;5.53;;;;;;;;;;5034891;28;20066;-69
2023/10/01 09:29:21;;;;;;;9.95;5.25;;;;;;;;;;5029345;28;20061;-69
2023/10/01 09:31:54;;;;;;;15.43;5.50;;;;;;;;;;5014518;28;20030;-68
2023/10/01 09:34:31;;;;;;;16.92;6.55;;;;;;;;;;5034273;28;20479;-69
2023/10/01 09:37:30;;;;;;;17.98;6.45;;;;;;;;;;5035183;28;20018;-68
2023/10/01 09:39:56;;;;;;;13.65;5.53;;;;;;;;;;5033965;28;20030;-68
2023/10/01 09:42:25;;;;;;;13.82;6.40;;;;;;;;;;5033793;28;20044;-68
2023/10/01 09:44:54;;;;;;;22.30;8.93;;;;;;;;;;5028159;28;20018;-68
2023/10/01 09:47:24;;;;;;;19.67;8.65;;;;;;;;;;5014088;28;20503;-68
2023/10/01 09:49:51;;;;;;;23.67;10.45;;;;;;;;;;5011820;28;20025;-68
2023/10/01 09:52:26;;;;;;;22.08;10.80;;;;;;;;;;5022317;28;20030;-68
2023/10/01 09:54:57;;;;;;;24.70;10.50;;;;;;;;;;5015087;28;20026;-69
2023/10/01 09:57:24;;;;;;;25.98;11.77;;;;;;;;;;5016114;28;20026;-69
2023/10/01 09:59:50;;;;;;;26.17;11.30;;;;;;;;;;5034874;28;20507;-69
2023/10/01 10:02:27;;;;;;;27.40;11.43;;;;;;;;;;5034335;28;20112;-69
2023/10/01 10:04:54;;;;;;;23.50;9.82;;;;;;;;;;5027317;28;20427;-69
2023/10/01 10:07:24;;;;;;;27.05;12.00;;;;;;;;;;5012649;28;20451;-69
2023/10/01 10:09:54;;;;;;;36.97;13.25;;;;;;;;;;5024582;28;20017;-69
2023/10/01 10:12:34;;;;;;;24.35;12.38;;;;;;;;;;5013708;28;20021;-69
2023/10/01 10:14:59;;;;;;;28.95;12.25;;;;;;;;;;5019080;28;20021;-69
2023/10/01 10:17:38;;;;;;;30.73;12.82;;;;;;;;;;5034446;28;20111;-69
2023/10/01 10:23:16;;;;;;;28.25;13.20;;;;;;;;;;5034362;28;20036;-69
2023/10/01 10:25:43;;;;;;;24.08;12.77;;;;;;;;;;5032651;28;20025;-69
2023/10/01 10:28:09;;;;;;;27.45;13.38;;;;;;;;;;5032539;28;20499;-69
2023/10/01 10:30:40;;;;;;;28.00;13.65;;;;;;;;;;5028231;28;20030;-69
2023/10/01 10:33:15;;;;;;;31.98;14.23;;;;;;;;;;5020937;28;20037;-69
2023/10/01 10:35:46;;;;;;;26.08;13.18;;;;;;;;;;5033637;28;20025;-69
2023/10/01 10:38:51;;;;;;;30.60;14.38;;;;;;;;;;5033121;28;20040;-69
2023/10/01 10:41:16;;;;;;;28.13;14.10;;;;;;;;;;5031071;28;20037;-70
2023/10/01 10:43:41;;;;;;;28.50;13.57;;;;;;;;;;5032976;28;20034;-69
2023/10/01 10:46:08;;;;;;;23.65;12.02;;;;;;;;;;5033222;28;20031;-69
2023/10/01 10:48:59;;;;;;;31.50;12.68;;;;;;;;;;5048842;28;20491;-71
2023/10/01 10:51:43;;;;;;;25.50;12.30;;;;;;;;;;5033103;28;20100;-69
2023/10/01 10:54:09;;;;;;;25.95;13.95;;;;;;;;;;5033886;28;20051;-69
2023/10/01 10:56:39;;;;;;;27.98;12.63;;;;;;;;;;5032429;28;20030;-68
2023/10/01 10:59:04;;;;;;;22.00;11.98;;;;;;;;;;5028646;28;20491;-69
2023/10/01 11:01:46;;;;;;;25.45;12.65;;;;;;;;;;5032823;28;20048;-69
2023/10/01 11:04:13;;;;;;;31.27;13.35;;;;;;;;;;5033091;28;20431;-69
2023/10/01 11:07:01;;;;;;;25.13;12.35;;;;;;;;;;5031801;28;20491;-69
2023/10/01 11:09:26;;;;;;;24.08;12.70;;;;;;;;;;5032247;28;20029;-70
2023/10/01 11:12:05;;;;;;;22.67;10.48;;;;;;;;;;5032190;28;20396;-69
2023/10/01 11:14:30;;;;;;;23.98;9.82;;;;;;;;;;5015476;28;20040;-69
2023/10/01 11:16:56;;;;;;;21.73;11.63;;;;;;;;;;5032774;28;20025;-69
2023/10/01 11:19:25;;;;;;;19.55;10.95;;;;;;;;;;5032912;28;20052;-70
2023/10/01 11:22:00;;;;;;;19.10;9.57;;;;;;;;;;5031513;28;20036;-70
2023/10/01 11:24:31;;;;;;;24.20;9.18;;;;;;;;;;5023372;28;20030;-70
2023/10/01 11:27:25;;;;;;;22.20;9.35;;;;;;;;;;5012947;28;20101;-69
2023/10/01 11:30:00;;;;;;;16.77;7.82;;;;;;;;;;5020511;28;20021;-71
2023/10/01 11:33:29;;;;;;;18.55;8.45;;;;;;;;;;5031403;28;20032;-70
2023/10/01 11:36:09;;;;;;;19.90;8.23;;;;;;;;;;5015604;28;20391;-70
2023/10/01 11:38:38;;;;;;;16.48;8.52;;;;;;;;;;5023362;28;20032;-70
2023/10/01 11:41:09;;;;;;;19.45;8.20;;;;;;;;;;5011090;28;20033;-71
2023/10/01 11:43:58;;;;;;;15.80;7.85;;;;;;;;;;5013393;28;20025;-71
2023/10/01 11:46:25;;;;;;;12.95;7.88;;;;;;;;;;5026898;28;20033;-71
2023/10/01 11:49:07;;;;;;;15.05;6.65;;;;;;;;;;5032520;28;20017;-71
2023/10/01 11:51:48;;;;;;;14.95;7.60;;;;;;;;;;5031988;28;20021;-71
2023/10/01 11:54:17;;;;;;;15.73;6.90;;;;;;;;;;5031424;28;20033;-71
2023/10/01 11:56:47;;;;;;;18.58;7.25;;;;;;;;;;5031228;28;20038;-72
2023/10/01 11:59:19;;;;;;;16.20;6.65;;;;;;;;;;5015557;28;20026;-71
2023/10/01 12:01:49;;;;;;;13.63;6.28;;;;;;;;;;5033158;28;20030;-72
2023/10/01 12:04:24;;;;;;;13.35;5.75;;;;;;;;;;5030799;28;20059;-73
2023/10/01 12:06:56;;;;;;;15.50;6.65;;;;;;;;;;5032242;28;20032;-71
2023/10/01 12:09:24;;;;;;;17.30;6.88;;;;;;;;;;5013319;28;20146;-71
2023/10/01 12:12:03;;;;;;;11.77;5.80;;;;;;;;;;5025464;28;20022;-72
2023/10/01 12:14:32;;;;;;;14.48;6.20;;;;;;;;;;5031875;28;20450;-71
2023/10/01 12:16:58;;;;;;;15.02;7.03;;;;;;;;;;5031218;28;20030;-73
2023/10/01 12:19:24;;;;;;;15.32;7.35;;;;;;;;;;5034955;28;20033;-72
2023/10/01 12:22:05;;;;;;;11.05;6.40;;;;;;;;;;5037538;28;20103;-72
2023/10/01 12:24:39;;;;;;;15.38;6.93;;;;;;;;;;5036135;28;20031;-72
2023/10/01 12:27:08;;;;;;;12.20;6.78;;;;;;;;;;5035710;28;20037;-72
2023/10/01 12:29:43;;;;;;;12.65;6.65;;;;;;;;;;5032618;28;20025;-72
2023/10/01 12:32:12;;;;;;;10.90;6.03;;;;;;;;;;5026692;28;20032;-72
2023/10/01 12:34:38;;;;;;;12.57;6.43;;;;;;;;;;5035796;28;20026;-72
2023/10/01 12:37:31;;;;;;;13.80;6.32;;;;;;;;;;5035941;28;20025;-72
2023/10/01 12:39:50;;;;;;;13.13;6.30;;;;;;;;;;5035574;28;20044;-72
2023/10/01 12:42:16;;;;;;;17.00;7.25;;;;;;;;;;5036853;28;20029;-72
2023/10/01 12:44:43;;;;;;;14.63;7.70;;;;;;;;;;5033654;28;20029;-72
2023/10/01 12:47:09;;;;;;;13.52;7.85;;;;;;;;;;5036616;28;20637;-72
2023/10/01 12:49:35;;;;;;;12.15;7.93;;;;;;;;;;5027847;28;20108;-72
2023/10/01 12:52:08;;;;;;;13.52;8.43;;;;;;;;;;5032581;28;20153;-72
2023/10/01 12:54:36;;;;;;;12.50;7.75;;;;;;;;;;5035666;28;20036;-72
2023/10/01 12:57:03;;;;;;;16.50;8.77;;;;;;;;;;5035593;28;20025;-72
2023/10/01 12:59:39;;;;;;;18.65;8.57;;;;;;;;;;5035469;28;20028;-72
2023/10/01 13:07:38;;;;;;;15.50;8.75;;;;;;;;;;5015681;28;20044;-72
2023/10/01 13:10:07;;;;;;;16.42;9.50;;;;;;;;;;5020573;28;20025;-72
2023/10/01 13:12:55;;;;;;;12.98;7.53;;;;;;;;;;5036684;28;20025;-72
2023/10/01 13:15:30;;;;;;;14.48;7.97;;;;;;;;;;5035060;28;20028;-72
2023/10/01 13:18:00;;;;;;;16.08;8.48;;;;;;;;;;5035442;28;20079;-72
2023/10/01 13:20:28;;;;;;;10.68;7.13;;;;;;;;;;5036194;28;20036;-72
2023/10/01 13:23:05;;;;;;;11.90;6.93;;;;;;;;;;5027750;28;20021;-72
2023/10/01 13:25:31;;;;;;;11.57;6.25;;;;;;;;;;5015213;28;20050;-72
2023/10/01 13:28:04;;;;;;;11.85;6.78;;;;;;;;;;5022600;28;20384;-72
2023/10/01 13:33:23;;;;;;;7.75;5.88;;;;;;;;;;5026766;28;20119;-72
2023/10/01 13:35:58;;;;;;;9.43;6.22;;;;;;;;;;5034653;28;20164;-72
2023/10/01 14:10:53;;;;;;;7.97;4.68;;;;;;;;;;5034573;28;20064;-71
2023/10/01 14:13:29;;;;;;;7.60;4.15;;;;;;;;;;5035562;28;20041;-72
2023/10/01 14:16:11;;;;;;;7.30;4.38;;;;;;;;;;5034570;28;20029;-72
2023/10/01 14:18:41;;;;;;;5.38;3.83;;;;;;;;;;5035618;28;20021;-71
2023/10/01 14:21:12;;;;;;;5.80;3.63;;;;;;;;;;5033738;28;20029;-73
2023/10/01 14:23:45;;;;;;;6.93;3.92;;;;;;;;;;5034388;28;20033;-73
2023/10/01 14:26:10;;;;;;;7.07;3.80;;;;;;;;;;5034304;28;20109;-72
2023/10/01 14:28:36;;;;;;;5.68;3.90;;;;;;;;;;5033305;28;20060;-72
2023/10/01 14:31:08;;;;;;;9.50;4.45;;;;;;;;;;5035089;28;20029;-72
2023/10/01 14:33:34;;;;;;;8.82;4.95;;;;;;;;;;5034051;28;20522;-74
2023/10/01 14:36:03;;;;;;;8.60;4.63;;;;;;;;;;5028414;28;20037;-71
2023/10/01 14:38:38;;;;;;;5.60;4.40;;;;;;;;;;5014537;28;20495;-73
2023/10/01 14:41:09;;;;;;;7.70;5.10;;;;;;;;;;5017633;28;20026;-74
2023/10/01 14:43:41;;;;;;;7.18;4.65;;;;;;;;;;5033674;28;20040;-73
2023/10/01 14:46:08;;;;;;;;;;;;;;;;;;5033547;28;20029;-73
2023/10/01 14:48:38;;;;;;;8.82;5.63;;;;;;;;;;5049835;28;19913;-73
2023/10/01 14:51:04;;;;;;;9.50;5.70;;;;;;;;;;5032900;28;20025;-73
2023/10/01 14:53:36;;;;;;;10.40;5.65;;;;;;;;;;5033588;28;20053;-74
2023/10/01 14:56:04;;;;;;;9.10;5.18;;;;;;;;;;5034501;28;20075;-73
2023/10/01 14:58:30;;;;;;;9.05;5.10;;;;;;;;;;5034053;28;20116;-73
2023/10/01 15:00:57;;;;;;;8.93;4.72;;;;;;;;;;5032904;28;20079;-73
2023/10/01 15:03:33;;;;;;;13.77;6.15;;;;;;;;;;5032483;28;20026;-77
2023/10/01 15:06:03;;;;;;;7.38;4.93;;;;;;;;;;5032172;28;20031;-73
2023/10/01 15:08:29;;;;;;;9.95;5.53;;;;;;;;;;5024270;28;20127;-73
2023/10/01 15:10:58;;;;;;;8.13;5.50;;;;;;;;;;5028067;28;20048;-73
2023/10/01 15:13:36;;;;;;;9.88;5.97;;;;;;;;;;5034156;28;20029;-73
2023/10/01 15:16:03;;;;;;;8.80;6.05;;;;;;;;;;5034164;28;20037;-73
2023/10/01 15:18:32;;;;;;;9.90;7.70;;;;;;;;;;5016600;28;20036;-72
2023/10/01 15:20:59;;;;;;;10.25;6.75;;;;;;;;;;5012936;28;20033;-73
2023/10/01 15:23:25;;;;;;;11.50;7.45;;;;;;;;;;5024167;28;20027;-72
2023/10/01 15:25:50;;;;;;;11.68;6.35;;;;;;;;;;5049074;28;20029;-72
2023/10/01 15:28:15;;;;;;;13.57;7.57;;;;;;;;;;5033819;28;20129;-74
2023/10/01 15:30:45;;;;;;;12.55;7.75;;;;;;;;;;5032180;28;20091;-73
2023/10/01 15:33:15;;;;;;;15.10;8.05;;;;;;;;;;5028458;28;20030;-73
2023/10/01 15:35:53;;;;;;;17.08;9.20;;;;;;;;;;5015833;28;20029;-73
2023/10/01 15:38:30;;;;;;;14.65;9.30;;;;;;;;;;5012802;28;20026;-73
2023/10/01 15:40:56;;;;;;;17.63;9.68;;;;;;;;;;5014409;28;20018;-73
2023/10/01 15:43:21;;;;;;;22.27;9.90;;;;;;;;;;5026578;28;20025;-72
2023/10/01 15:45:47;;;;;;;18.10;9.50;;;;;;;;;;5033811;28;20100;-72
2023/10/01 15:48:17;;;;;;;21.48;8.98;;;;;;;;;;5030242;28;20144;-73
2023/10/01 15:50:43;;;;;;;22.35;10.40;;;;;;;;;;5013943;28;20029;-72
2023/10/01 15:53:17;;;;;;;23.48;10.05;;;;;;;;;;5019252;28;20030;-72
2023/10/01 15:55:55;;;;;;;16.23;10.85;;;;;;;;;;5033713;28;20060;-72
2023/10/01 15:58:24;;;;;;;22.48;10.23;;;;;;;;;;5033837;28;20032;-72
2023/10/01 16:00:52;;;;;;;21.70;10.18;;;;;;;;;;5031490;28;20036;-72
2023/10/01 16:03:25;;;;;;;19.85;10.60;;;;;;;;;;5033798;28;20031;-72
2023/10/01 16:05:56;;;;;;;18.13;9.07;;;;;;;;;;5033716;28;20037;-72
2023/10/01 16:08:22;;;;;;;23.55;10.05;;;;;;;;;;5032101;28;20021;-72